Aérodrome :
LOGIN :

S'inscrire | Disclaimer

   EN    FR    IT 

 










Légende :    VFR   VFR Marginal   IFR   IFR Intensif   IFR Très Intensif
Visi : 
Plafond : 
>= 8 km
>= 3000ft
5 à 8 km
1000 à 3000 ft
1500m à 5 km
500 à 1000 ft
800 à 1500m
200 à 500 ft
< 800m
< 200 ft
Symboles :   Orages  Brouillard  Fortes neiges  Fortes précipitations  Vent > 20 kt
SIGMETs :   Divers  Orages  Givrage  Turbulence  Onde Orograph.  Cendres Volcan.







- Altitude de l'aérodrome : 7 ft
- Code IATA : XHE
- Voir les cartes d'approche


LFTH - Hyeres

DERNIER METAR :
  • 180330Z AUTO 33010KT 290V350 CAVOK 07/M03 Q1011 NOSIG

METARs EXPIRÉS :
  • 180300Z AUTO 30008KT 270V330 CAVOK 08/M04 Q1011 NOSIG
  • 180230Z AUTO 27009KT CAVOK 07/M04 Q1012 NOSIG
  • 180200Z AUTO 32011KT 290V350 CAVOK 08/M02 Q1012 TEMPO 31015G25KT
  • 180130Z AUTO 31012KT CAVOK 08/M02 Q1012 TEMPO 31015G25KT
  • 180100Z AUTO 28009KT CAVOK 09/M02 Q1012 TEMPO 31015G25KT

TAF TAF LFTH
Valide du 18 à 03h jusqu'au 19 à 03h UTC


180200Z 1803/1903 29010KT CAVOK
TEMPO 1803/1810 31012G25KT
BECMG 1810/1812 34008KT
Pas de NOTAMs connus pour ce terrain.
1 SIGMET publié pour la FIR Marseille (LFMM) :
 
Onde orographique forte
LFMM SIGMET 1 VALID 180000/180400 LFPW
LFMM MARSEILLE FIR/UIR SEV MTW FCST WI N4315 E00945 - N4115 E00945 - N4115 E00900 - N4300 E00845 - N4315 E00945 SFC/FL200 STNR INTSF=



MET'MAP, la Météo Aéronautique d'un coup d'oeil ! - Copyright ORBIFLY Décembre 2007 - Disclaimer

ORBIFLY MET'MAP TEAM :

Programmation & Développement : Alexandra Zaïnal
Conception & Développement : Baudouin d'Aumeries
Co-Programmation & Développement : Marc-Olivier Méhu
Soutien technique & logistique : Manuel Goepfert

Contact : metmap@orbifly.com




SOURCES & CREDITS :

   NOAA